Terminal Aerodrome Forecast
Issued by NWS

Home | Current Version | Previous Version | Text Only | Print | Product List | Glossary On
Versions: 1 2 3 4 5 6 7 8 9 10 11 12 13
000
FTAK31 PAFA 222335
TAFAOT
TAF
PAOT 222335Z 2300/2324 22006KT P6SM SKC
     FM230600 10015G22KT P6SM SCT100 BKN150
     FM231400 09025G35KT 1SM -SN BLSN BKN025 OVC035=

USA.gov is the U.S. government's official web portal to all federal, state and local government web resources and services.